createdAt,value
2018-08-06T00:00:38.116Z,7.83
2018-08-06T00:03:06.629Z,8.70
2018-08-06T00:05:35.845Z,7.23
2018-08-06T00:08:04.641Z,6.63
2018-08-06T00:10:33.558Z,6.67
2018-08-06T00:13:01.684Z,7.33
2018-08-06T00:15:30.032Z,6.63
2018-08-06T00:17:58.149Z,4.57
2018-08-06T00:20:27.997Z,5.00
2018-08-06T00:22:56.984Z,5.83
2018-08-06T00:25:26.997Z,5.10
2018-08-06T00:27:55.868Z,5.17
2018-08-06T00:30:24.085Z,5.35
2018-08-06T00:32:53.989Z,5.78
2018-08-06T00:35:22.380Z,4.95
2018-08-06T00:37:51.550Z,4.97
2018-08-06T00:40:21.410Z,5.23
2018-08-06T00:42:49.768Z,5.90
2018-08-06T00:45:20.302Z,7.15
2018-08-06T00:47:49.977Z,5.40
2018-08-06T00:50:18.613Z,9.15
2018-08-06T00:52:46.652Z,5.87
2018-08-06T00:55:17.736Z,5.57
2018-08-06T00:57:45.688Z,6.50
2018-08-06T01:00:15.581Z,5.97
2018-08-06T01:02:45.023Z,5.80
2018-08-06T01:05:13.773Z,5.80
2018-08-06T01:07:42.797Z,7.87
2018-08-06T01:10:11.796Z,5.53
2018-08-06T01:12:40.699Z,5.97
2018-08-06T01:15:11.049Z,6.47
2018-08-06T01:17:40.007Z,6.07
2018-08-06T01:20:09.902Z,6.47
2018-08-06T01:22:38.293Z,6.73
2018-08-06T01:25:06.312Z,6.13
2018-08-06T01:27:36.504Z,6.60
2018-08-06T01:30:06.149Z,6.13
2018-08-06T01:32:35.235Z,6.07
2018-08-06T01:35:04.705Z,5.47
2018-08-06T01:37:34.176Z,5.15
2018-08-06T01:40:02.592Z,5.37
2018-08-06T01:42:32.973Z,6.08
2018-08-06T01:50:02.407Z,5.60
2018-08-06T01:52:30.565Z,5.60
2018-08-06T01:54:58.789Z,6.22
2018-08-06T01:57:27.174Z,7.35
2018-08-06T01:59:55.670Z,6.05
2018-08-06T02:02:23.777Z,5.92
2018-08-06T02:04:51.939Z,5.30
2018-08-06T02:07:20.665Z,6.00
2018-08-06T02:09:50.169Z,6.00
2018-08-06T02:12:18.564Z,7.15
2018-08-06T02:14:46.644Z,4.37
2018-08-06T02:17:14.588Z,5.72
2018-08-06T02:19:42.761Z,6.50
2018-08-06T02:22:11.048Z,6.15
2018-08-06T02:24:39.218Z,7.15
2018-08-06T02:27:07.672Z,5.80
2018-08-06T02:29:35.956Z,6.58
2018-08-06T02:32:04.669Z,5.50
2018-08-06T02:34:33.358Z,7.33
2018-08-06T02:37:01.481Z,7.85
2018-08-06T02:39:29.800Z,8.23
2018-08-06T02:41:58.029Z,8.10
2018-08-06T02:44:26.765Z,8.33
2018-08-06T02:46:55.370Z,9.57
2018-08-06T02:49:23.509Z,8.55
2018-08-06T02:51:51.840Z,9.13
2018-08-06T02:54:20.654Z,8.10
2018-08-06T02:56:48.871Z,8.00
2018-08-06T02:59:17.545Z,6.35
2018-08-06T03:01:46.250Z,6.10
2018-08-06T03:04:14.380Z,6.03
2018-08-06T03:06:42.646Z,5.17
2018-08-06T03:09:12.409Z,4.92
2018-08-06T03:11:41.697Z,4.12
2018-08-06T03:14:10.004Z,3.70
2018-08-06T03:16:38.973Z,3.35
2018-08-06T03:19:07.276Z,4.05
2018-08-06T03:21:35.744Z,3.12
2018-08-06T03:24:04.250Z,3.90
2018-08-06T03:26:33.329Z,3.90
2018-08-06T03:29:01.625Z,3.83
2018-08-06T03:31:29.737Z,4.08
2018-08-06T03:33:57.942Z,4.05
2018-08-06T03:36:27.173Z,4.03
2018-08-06T03:38:55.705Z,4.47
2018-08-06T03:41:23.840Z,4.97
2018-08-06T03:43:52.213Z,5.92
2018-08-06T03:46:20.060Z,6.93
2018-08-06T03:48:49.065Z,7.23
2018-08-06T03:51:17.120Z,7.37
2018-08-06T03:53:44.977Z,7.60
2018-08-06T03:56:13.640Z,6.30
2018-08-06T03:58:41.713Z,4.80
2018-08-06T04:01:10.437Z,4.90
2018-08-06T04:03:38.517Z,4.43
2018-08-06T04:06:06.858Z,3.97
2018-08-06T04:08:35.017Z,5.90
2018-08-06T04:11:05.077Z,5.10
2018-08-06T04:13:33.751Z,4.62
2018-08-06T04:16:02.533Z,4.50
2018-08-06T04:18:31.141Z,4.65
2018-08-06T04:20:59.524Z,6.07
2018-08-06T04:23:28.448Z,5.05
2018-08-06T04:25:56.541Z,6.45
2018-08-06T04:28:25.606Z,5.43
2018-08-06T04:30:54.300Z,5.00
2018-08-06T04:33:22.506Z,4.13
2018-08-06T04:35:51.381Z,4.27
2018-08-06T04:38:19.560Z,3.93
2018-08-06T04:40:47.808Z,4.30
2018-08-06T04:43:16.417Z,4.75
2018-08-06T04:45:45.133Z,5.55
2018-08-06T04:48:13.505Z,3.90
2018-08-06T04:50:41.656Z,3.80
2018-08-06T04:53:09.717Z,5.25
2018-08-06T04:55:38.153Z,6.15
2018-08-06T04:58:06.311Z,5.83
2018-08-06T05:00:35.352Z,4.45
2018-08-06T05:03:04.129Z,4.87
2018-08-06T05:05:31.992Z,4.33
2018-08-06T05:08:00.532Z,4.53
2018-08-06T05:10:29.420Z,4.85
2018-08-06T05:12:57.496Z,5.55
2018-08-06T05:15:27.296Z,4.70
2018-08-06T05:17:55.381Z,5.08
2018-08-06T05:20:24.269Z,4.85
2018-08-06T05:22:52.968Z,5.95
2018-08-06T05:25:21.657Z,7.40
2018-08-06T05:27:51.144Z,6.00
2018-08-06T05:30:19.269Z,5.08
2018-08-06T05:32:47.289Z,5.03
2018-08-06T05:35:15.494Z,6.25
2018-08-06T05:37:43.637Z,4.35
2018-08-06T05:40:13.608Z,5.12
2018-08-06T05:42:42.432Z,4.95
2018-08-06T05:45:12.028Z,5.83
2018-08-06T05:47:40.259Z,6.12
2018-08-06T05:50:11.051Z,7.55
2018-08-06T05:52:43.974Z,4.72
2018-08-06T05:55:12.280Z,4.47
2018-08-06T05:57:41.765Z,5.12
2018-08-06T06:00:10.862Z,4.60
2018-08-06T06:02:39.945Z,4.65
2018-08-06T06:05:09.357Z,4.95
2018-08-06T06:07:38.349Z,4.65
2018-08-06T06:10:08.761Z,4.30
2018-08-06T06:12:37.881Z,3.80
2018-08-06T06:15:11.977Z,4.67
2018-08-06T06:17:40.303Z,6.15
2018-08-06T06:20:08.836Z,4.10
2018-08-06T06:22:37.409Z,3.08
2018-08-06T06:25:08.157Z,3.65
2018-08-06T06:27:37.185Z,3.92
2018-08-06T06:30:06.990Z,4.05
2018-08-06T06:32:35.061Z,4.15
2018-08-06T06:35:04.041Z,2.87
2018-08-06T06:37:32.404Z,3.70
2018-08-06T06:40:00.989Z,2.50
2018-08-06T06:42:30.062Z,2.17
2018-08-06T06:44:58.362Z,3.47
2018-08-06T06:47:26.606Z,2.00
2018-08-06T06:49:54.693Z,2.75
2018-08-06T06:52:23.712Z,2.65
2018-08-06T06:54:51.905Z,2.10
2018-08-06T06:57:20.163Z,1.85
2018-08-06T06:59:48.986Z,2.62
2018-08-06T07:02:18.204Z,1.22
2018-08-06T07:04:46.733Z,3.40
2018-08-06T07:07:15.383Z,2.12
2018-08-06T07:09:43.224Z,1.82
2018-08-06T07:12:11.325Z,1.60
2018-08-06T07:14:41.073Z,1.60
2018-08-06T07:17:09.229Z,2.00
2018-08-06T07:19:38.415Z,2.58
2018-08-06T07:22:07.323Z,2.52
2018-08-06T07:24:35.726Z,2.60
2018-08-06T07:27:04.584Z,2.45
2018-08-06T07:29:32.789Z,1.67
2018-08-06T07:32:01.789Z,1.30
2018-08-06T07:34:30.769Z,1.30
2018-08-06T07:36:59.865Z,1.72
2018-08-06T07:39:28.260Z,1.60
2018-08-06T07:41:56.828Z,2.33
2018-08-06T07:44:25.918Z,1.52
2018-08-06T07:46:54.117Z,1.60
2018-08-06T07:49:23.370Z,1.70
2018-08-06T07:51:52.416Z,1.62
2018-08-06T07:54:20.682Z,2.17
2018-08-06T07:56:49.049Z,2.15
2018-08-06T07:59:18.128Z,1.72
2018-08-06T08:01:46.279Z,1.42
2018-08-06T08:04:14.516Z,1.50
2018-08-06T08:06:43.399Z,2.77
2018-08-06T08:09:12.972Z,1.40
2018-08-06T08:11:41.229Z,1.60
2018-08-06T08:14:11.064Z,1.37
2018-08-06T08:16:39.403Z,1.30
2018-08-06T08:19:07.776Z,1.40
2018-08-06T08:21:35.901Z,1.40
2018-08-06T08:24:04.445Z,1.70
2018-08-06T08:26:32.828Z,1.62
2018-08-06T08:29:01.182Z,1.25
2018-08-06T08:31:29.953Z,1.52
2018-08-06T08:33:58.121Z,1.20
2018-08-06T08:36:26.725Z,1.60
2018-08-06T08:38:55.209Z,1.27
2018-08-06T08:41:23.962Z,1.52
2018-08-06T08:43:52.234Z,1.40
2018-08-06T08:46:21.585Z,1.45
2018-08-06T08:48:50.945Z,1.00
2018-08-06T08:51:19.865Z,1.50
2018-08-06T08:53:49.886Z,1.87
2018-08-06T08:56:18.229Z,1.17
2018-08-06T08:58:47.826Z,1.55
2018-08-06T09:01:16.459Z,1.90
2018-08-06T09:03:44.933Z,1.07
2018-08-06T09:06:13.225Z,1.40
2018-08-06T09:08:41.505Z,1.30
2018-08-06T09:11:09.817Z,1.50
2018-08-06T09:13:38.893Z,1.10
2018-08-06T09:16:06.760Z,1.15
2018-08-06T09:18:35.104Z,1.15
2018-08-06T09:21:03.259Z,0.93
2018-08-06T09:23:31.484Z,1.40
2018-08-06T09:26:00.454Z,1.10
2018-08-06T09:28:28.532Z,1.42
2018-08-06T09:30:58.109Z,1.20
2018-08-06T09:33:26.484Z,1.02
2018-08-06T09:35:55.093Z,1.62
2018-08-06T09:38:23.292Z,1.00
2018-08-06T09:40:52.085Z,1.52
2018-08-06T09:43:20.516Z,1.10
2018-08-06T09:45:48.853Z,1.10
2018-08-06T09:48:17.028Z,1.20
2018-08-06T09:50:45.476Z,1.30
2018-08-06T09:53:15.468Z,1.27
2018-08-06T09:55:44.757Z,1.47
2018-08-06T09:58:13.783Z,1.25
2018-08-06T10:00:46.597Z,1.07
2018-08-06T10:03:15.756Z,1.15
2018-08-06T10:05:45.197Z,1.32
2018-08-06T10:08:13.426Z,1.25
2018-08-06T10:10:41.613Z,1.32
2018-08-06T10:13:10.374Z,1.10
2018-08-06T10:15:39.049Z,1.20
2018-08-06T10:18:08.049Z,1.02
2018-08-06T10:20:36.593Z,1.20
2018-08-06T10:23:04.930Z,1.50
2018-08-06T10:25:33.569Z,1.42
2018-08-06T10:28:01.648Z,1.82
2018-08-06T10:30:29.612Z,1.22
2018-08-06T10:32:57.731Z,1.15
2018-08-06T10:35:26.473Z,1.35
2018-08-06T10:37:55.265Z,1.32
2018-08-06T10:40:24.003Z,1.12
2018-08-06T10:42:52.201Z,1.17
2018-08-06T10:45:22.625Z,1.65
2018-08-06T10:47:51.477Z,2.55
2018-08-06T10:50:19.689Z,1.07
2018-08-06T10:52:48.168Z,0.93
2018-08-06T10:55:16.332Z,1.45
2018-08-06T10:57:45.217Z,1.10
2018-08-06T11:00:17.404Z,1.07
2018-08-06T11:02:45.722Z,0.88
2018-08-06T11:05:15.021Z,0.98
2018-08-06T11:07:43.764Z,1.00
2018-08-06T11:10:15.025Z,1.10
2018-08-06T11:12:43.133Z,0.70
2018-08-06T11:15:14.250Z,1.50
2018-08-06T11:17:43.317Z,2.27
2018-08-06T11:20:13.017Z,1.55
2018-08-06T11:22:42.544Z,1.12
2018-08-06T11:25:13.402Z,1.47
2018-08-06T11:27:41.757Z,0.78
2018-08-06T11:30:11.641Z,0.70
2018-08-06T11:32:39.910Z,0.90
2018-08-06T11:35:09.049Z,1.10
2018-08-06T11:37:37.281Z,1.00
2018-08-06T11:40:05.733Z,1.90
2018-08-06T11:42:34.978Z,1.50
2018-08-06T11:45:03.388Z,1.70
2018-08-06T11:47:31.797Z,0.95
2018-08-06T11:49:59.924Z,1.05
2018-08-06T11:52:28.709Z,1.47
2018-08-06T11:54:56.926Z,1.12
2018-08-06T11:57:25.581Z,1.10
2018-08-06T11:59:53.899Z,1.20
2018-08-06T12:02:23.478Z,1.30
2018-08-06T12:04:51.647Z,1.10
2018-08-06T12:07:19.933Z,1.00
2018-08-06T12:09:48.650Z,1.10
2018-08-06T12:12:16.805Z,1.30
2018-08-06T12:14:46.121Z,1.20
2018-08-06T12:17:14.361Z,1.20
2018-08-06T12:19:43.177Z,1.10
2018-08-06T12:22:11.124Z,1.17
2018-08-06T12:24:40.357Z,1.07
2018-08-06T12:27:08.990Z,0.80
2018-08-06T12:29:37.445Z,0.88
2018-08-06T12:32:05.620Z,0.93
2018-08-06T12:34:34.251Z,1.00
2018-08-06T12:37:02.661Z,0.90
2018-08-06T12:39:31.601Z,1.22
2018-08-06T12:41:59.849Z,1.05
2018-08-06T12:44:28.089Z,1.05
2018-08-06T12:46:57.584Z,1.10
2018-08-06T12:49:26.110Z,1.27
2018-08-06T12:51:54.074Z,1.20
2018-08-06T12:54:22.430Z,1.50
2018-08-06T12:56:51.669Z,1.30
2018-08-06T12:59:20.272Z,1.30
2018-08-06T13:01:48.712Z,1.00
2018-08-06T13:04:16.633Z,1.17
2018-08-06T13:06:44.815Z,1.27
2018-08-06T13:09:13.809Z,1.10
2018-08-06T13:11:42.048Z,0.88
2018-08-06T13:14:11.613Z,0.90
2018-08-06T13:16:41.293Z,1.22
2018-08-06T13:19:09.472Z,1.00
2018-08-06T13:21:37.545Z,1.45
2018-08-06T13:24:05.931Z,1.20
2018-08-06T13:26:34.600Z,0.98
2018-08-06T13:29:02.839Z,1.45
2018-08-06T13:31:30.725Z,1.05
2018-08-06T13:33:58.663Z,1.22
2018-08-06T13:36:27.269Z,0.98
2018-08-06T13:38:55.221Z,1.05
2018-08-06T13:41:24.343Z,0.90
2018-08-06T13:43:52.700Z,1.20
2018-08-06T13:46:21.321Z,1.22
2018-08-06T13:48:51.065Z,1.00
2018-08-06T13:51:20.029Z,1.00
2018-08-06T13:53:48.368Z,1.00
2018-08-06T13:56:16.501Z,1.15
2018-08-06T13:58:44.717Z,1.37
2018-08-06T14:01:12.852Z,1.15
2018-08-06T14:03:41.128Z,0.90
2018-08-06T14:06:09.535Z,0.90
2018-08-06T14:08:37.696Z,1.20
2018-08-06T14:11:06.616Z,1.07
2018-08-06T14:13:34.664Z,1.27
2018-08-06T14:16:04.264Z,1.62
2018-08-06T14:18:32.677Z,1.25
2018-08-06T14:21:02.318Z,1.15
2018-08-06T14:23:30.577Z,1.00
2018-08-06T14:25:59.328Z,1.22
2018-08-06T14:28:27.457Z,1.25
2018-08-06T14:30:56.000Z,1.15
2018-08-06T14:33:24.463Z,0.98
2018-08-06T14:35:53.016Z,1.00
2018-08-06T14:38:21.336Z,1.20
2018-08-06T14:40:50.210Z,1.30
2018-08-06T14:43:18.493Z,1.25
2018-08-06T14:45:46.585Z,4.42
2018-08-06T14:48:15.132Z,1.60
2018-08-06T14:50:43.973Z,1.20
2018-08-06T14:53:11.908Z,0.80
2018-08-06T14:55:41.938Z,1.00
2018-08-06T14:58:10.477Z,1.95
2018-08-06T15:00:39.465Z,3.10
2018-08-06T15:03:09.302Z,0.93
2018-08-06T15:05:37.504Z,0.80
2018-08-06T15:08:05.653Z,0.82
2018-08-06T15:10:34.058Z,1.30
2018-08-06T15:13:02.591Z,1.12
2018-08-06T15:15:31.338Z,0.88
2018-08-06T15:17:59.477Z,0.90
2018-08-06T15:20:27.583Z,0.80
2018-08-06T15:22:56.442Z,0.95
2018-08-06T15:25:26.011Z,1.45
2018-08-06T15:27:54.961Z,1.00
2018-08-06T15:30:23.362Z,1.02
2018-08-06T15:32:56.095Z,1.92
2018-08-06T15:35:25.046Z,1.30
2018-08-06T15:37:53.163Z,0.90
2018-08-06T15:40:22.014Z,2.10
2018-08-06T15:42:50.625Z,0.98
2018-08-06T15:45:19.306Z,0.70
2018-08-06T15:47:47.709Z,0.70
2018-08-06T15:50:18.173Z,1.07
2018-08-06T15:52:46.304Z,0.85
2018-08-06T15:55:14.558Z,0.98
2018-08-06T15:57:43.149Z,1.05
2018-08-06T16:00:15.223Z,0.90
2018-08-06T16:02:44.140Z,0.78
2018-08-06T16:05:13.945Z,0.90
2018-08-06T16:07:43.301Z,1.17
2018-08-06T16:10:12.091Z,0.80
2018-08-06T16:12:41.736Z,1.00
2018-08-06T16:15:11.427Z,0.82
2018-08-06T16:17:40.446Z,1.17
2018-08-06T16:20:11.413Z,1.00
2018-08-06T16:22:40.095Z,0.93
2018-08-06T16:25:09.089Z,0.93
2018-08-06T16:27:37.164Z,1.15
2018-08-06T16:30:24.197Z,1.35
2018-08-06T16:32:52.330Z,0.88
2018-08-06T16:35:22.109Z,0.88
2018-08-06T16:37:50.772Z,1.00
2018-08-06T16:40:19.753Z,0.90
2018-08-06T16:42:49.153Z,0.82
2018-08-06T16:45:17.514Z,1.40
2018-08-06T16:47:45.896Z,0.90
2018-08-06T16:50:15.532Z,0.70
2018-08-06T16:52:44.695Z,2.00
2018-08-06T16:55:12.797Z,0.72
2018-08-06T16:57:42.149Z,0.85
2018-08-06T17:00:14.987Z,0.90
2018-08-06T17:02:43.970Z,0.60
2018-08-06T17:05:13.182Z,1.42
2018-08-06T17:07:41.905Z,0.70
2018-08-06T17:10:13.570Z,0.80
2018-08-06T17:12:44.291Z,0.93
2018-08-06T17:15:14.653Z,0.98
2018-08-06T17:17:42.895Z,0.85
2018-08-06T17:20:13.145Z,0.80
2018-08-06T17:22:42.890Z,1.17
2018-08-06T17:25:12.301Z,0.90
2018-08-06T17:27:41.001Z,2.15
2018-08-06T17:30:10.445Z,2.40
2018-08-06T17:32:40.100Z,1.00
2018-08-06T17:35:10.526Z,1.40
2018-08-06T17:37:39.381Z,0.75
2018-08-06T17:40:10.513Z,1.72
2018-08-06T17:42:39.094Z,0.93
2018-08-06T17:45:13.097Z,0.98
2018-08-06T17:47:41.540Z,0.98
2018-08-06T17:50:13.988Z,0.75
2018-08-06T17:52:44.950Z,1.50
2018-08-06T17:55:13.361Z,0.98
2018-08-06T17:57:41.868Z,0.88
2018-08-06T18:00:11.703Z,1.10
2018-08-06T18:02:39.815Z,0.88
2018-08-06T18:05:11.034Z,0.88
2018-08-06T18:07:40.153Z,0.93
2018-08-06T18:10:09.739Z,1.02
2018-08-06T18:12:38.009Z,0.90
2018-08-06T18:20:09.005Z,1.17
2018-08-06T18:22:37.386Z,1.10
2018-08-06T18:25:07.913Z,2.17
2018-08-06T18:27:36.597Z,2.15
2018-08-06T18:30:06.060Z,2.00
2018-08-06T18:32:34.285Z,1.62
2018-08-06T18:35:02.477Z,7.62
2018-08-06T18:37:30.960Z,1.50
2018-08-06T18:39:59.220Z,2.72
2018-08-06T18:42:27.321Z,1.25
2018-08-06T18:44:55.456Z,1.75
2018-08-06T18:47:23.929Z,1.20
2018-08-06T18:49:53.033Z,0.95
2018-08-06T18:52:21.401Z,1.17
2018-08-06T18:54:49.365Z,2.05
2018-08-06T18:57:17.644Z,0.75
2018-08-06T18:59:45.917Z,0.93
2018-08-06T19:02:14.173Z,1.22
2018-08-06T19:04:42.557Z,1.15
2018-08-06T19:07:10.928Z,1.00
2018-08-06T19:09:38.776Z,2.67
2018-08-06T19:12:12.493Z,1.20
2018-08-06T19:14:40.524Z,1.30
2018-08-06T19:17:08.993Z,1.72
2018-08-06T19:19:37.226Z,2.02
2018-08-06T19:22:05.993Z,1.37
2018-08-06T19:24:40.135Z,2.75
2018-08-06T19:27:10.006Z,3.00
2018-08-06T19:29:39.109Z,1.30
2018-08-06T19:32:07.859Z,1.30
2018-08-06T19:34:36.497Z,1.30
2018-08-06T19:37:10.366Z,1.40
2018-08-06T19:39:39.230Z,1.42
2018-08-06T19:42:07.445Z,1.60
2018-08-06T19:44:35.524Z,1.50
2018-08-06T19:47:04.221Z,1.30
2018-08-06T19:49:38.652Z,1.87
2018-08-06T19:52:07.084Z,1.15
2018-08-06T19:54:36.165Z,1.50
2018-08-06T19:57:04.954Z,1.47
2018-08-06T19:59:33.124Z,1.40
2018-08-06T20:02:01.333Z,1.65
2018-08-06T20:04:29.931Z,3.10
2018-08-06T20:06:59.250Z,2.35
2018-08-06T20:09:28.673Z,1.42
2018-08-06T20:11:57.041Z,2.25
2018-08-06T20:14:25.072Z,1.20
2018-08-06T20:16:53.694Z,1.60
2018-08-06T20:19:22.093Z,1.30
2018-08-06T20:21:51.759Z,1.40
2018-08-06T20:24:20.063Z,2.25
2018-08-06T20:26:49.060Z,1.50
2018-08-06T20:29:18.102Z,1.50
2018-08-06T20:31:46.293Z,2.37
2018-08-06T20:34:15.865Z,1.47
2018-08-06T20:36:43.966Z,1.62
2018-08-06T20:39:12.892Z,1.60
2018-08-06T20:41:41.085Z,1.52
2018-08-06T20:44:09.249Z,2.17
2018-08-06T20:46:38.591Z,1.92
2018-08-06T20:49:06.954Z,1.15
2018-08-06T20:51:36.002Z,1.37
2018-08-06T20:54:04.158Z,2.87
2018-08-06T20:56:32.474Z,2.77
2018-08-06T20:59:00.629Z,1.75
2018-08-06T21:01:30.823Z,3.35
2018-08-06T21:03:59.160Z,1.10
2018-08-06T21:06:27.085Z,1.40
2018-08-06T21:08:55.865Z,1.27
2018-08-06T21:11:24.137Z,1.42
2018-08-06T21:13:53.070Z,1.35
2018-08-06T21:16:21.849Z,1.92
2018-08-06T21:18:50.013Z,1.60
2018-08-06T21:21:18.549Z,1.27
2018-08-06T21:23:47.464Z,1.40
2018-08-06T21:26:15.601Z,1.50
2018-08-06T21:28:43.557Z,1.30
2018-08-06T21:31:12.552Z,1.50
2018-08-06T21:35:06.029Z,1.25
2018-08-06T21:37:34.770Z,1.98
2018-08-06T21:40:02.840Z,1.45
2018-08-06T21:42:32.049Z,1.30
2018-08-06T21:45:00.250Z,1.87
2018-08-06T21:47:28.872Z,1.80
2018-08-06T21:49:57.208Z,3.42
2018-08-06T21:52:25.790Z,1.00
2018-08-06T21:54:53.935Z,1.12
2018-08-06T21:57:22.447Z,2.22
2018-08-06T21:59:50.645Z,1.77
2018-08-06T22:02:18.975Z,2.05
2018-08-06T22:04:47.797Z,1.30
2018-08-06T22:07:17.117Z,1.42
2018-08-06T22:09:44.991Z,1.40
2018-08-06T22:12:13.094Z,0.90
2018-08-06T22:14:41.298Z,1.95
2018-08-06T22:17:10.363Z,2.40
2018-08-06T22:19:38.589Z,1.30
2018-08-06T22:22:07.225Z,1.35
2018-08-06T22:24:36.538Z,3.17
2018-08-06T22:27:04.645Z,1.75
2018-08-06T22:29:33.539Z,3.70
2018-08-06T22:32:01.949Z,1.10
2018-08-06T22:34:29.825Z,1.20
2018-08-06T22:36:58.706Z,1.35
2018-08-06T22:39:26.688Z,1.35
2018-08-06T22:41:55.198Z,2.40
2018-08-06T22:44:23.928Z,1.40
2018-08-06T22:46:52.028Z,1.52
2018-08-06T22:49:20.484Z,1.32
2018-08-06T22:51:48.521Z,1.25
2018-08-06T22:54:16.921Z,1.67
2018-08-06T22:56:45.077Z,1.57
2018-08-06T22:59:13.813Z,1.37
2018-08-06T23:01:41.688Z,1.12
2018-08-06T23:04:10.648Z,2.47
2018-08-06T23:06:40.185Z,3.10
2018-08-06T23:09:11.300Z,2.25
2018-08-06T23:11:40.097Z,1.42
2018-08-06T23:14:08.160Z,1.40
2018-08-06T23:16:37.321Z,1.40
2018-08-06T23:19:05.824Z,1.12
2018-08-06T23:21:35.311Z,1.70
2018-08-06T23:24:05.144Z,1.20
2018-08-06T23:26:34.473Z,1.25
2018-08-06T23:29:02.385Z,1.25
2018-08-06T23:31:30.909Z,1.15
2018-08-06T23:33:59.562Z,1.25
2018-08-06T23:36:28.659Z,3.33
2018-08-06T23:38:56.713Z,1.22
2018-08-06T23:41:24.825Z,1.25
2018-08-06T23:43:53.125Z,1.40
2018-08-06T23:46:21.543Z,1.30
2018-08-06T23:48:49.753Z,1.40
2018-08-06T23:51:18.758Z,1.45
2018-08-06T23:53:47.597Z,1.70
2018-08-06T23:56:16.209Z,1.40
2018-08-06T23:58:44.593Z,1.00
